Time;durP1;ratioP1;P1;durP2;ratioP2;P2;SDS_P1;SDS_P2;PMS_P1;PMS_P2;Temp;Humidity;BMP_temperature;BMP_pressure;BME280_temperature;BME280_humidity;BME280_pressure;Samples;Min_cycle;Max_cycle;Signal;HPM_P1;HPM_P2
2024/03/02 00:01:58;;;;;;;13.10;8.50;;;;;;;5.73;82.00;94375.97;5011809;28;20201;-79
2024/03/02 00:04:23;;;;;;;10.00;7.30;;;;;;;5.68;82.27;94373.03;5003174;28;20238;-80
2024/03/02 00:06:52;;;;;;;10.27;7.50;;;;;;;5.67;82.20;94379.16;5004422;28;20746;-80
2024/03/02 00:09:18;;;;;;;9.17;7.70;;;;;;;5.70;82.67;94381.44;5020381;28;20188;-79
2024/03/02 00:11:43;;;;;;;11.30;7.90;;;;;;;5.63;83.18;94380.38;5004290;28;20703;-80
2024/03/02 00:14:09;;;;;;;9.93;8.30;;;;;;;5.72;82.61;94378.69;5006707;28;20211;-80
2024/03/02 00:16:34;;;;;;;10.40;8.03;;;;;;;5.75;82.12;94381.81;5014595;28;20253;-79
2024/03/02 00:19:05;;;;;;;10.63;8.10;;;;;;;5.71;82.43;94380.47;5000294;28;20273;-80
2024/03/02 00:21:30;;;;;;;13.10;9.17;;;;;;;5.68;82.57;94389.31;5017609;28;20183;-79
2024/03/02 00:23:56;;;;;;;11.20;8.00;;;;;;;5.60;82.93;94380.69;5017336;28;20210;-79
2024/03/02 00:26:21;;;;;;;10.37;8.03;;;;;;;5.65;82.91;94384.44;5010192;28;20900;-79
2024/03/02 00:28:50;;;;;;;8.73;7.20;;;;;;;5.81;81.95;94377.81;5002051;28;20205;-79
2024/03/02 00:31:15;;;;;;;12.33;7.70;;;;;;;5.65;82.56;94379.31;5010904;28;20195;-79
2024/03/02 00:33:46;;;;;;;12.17;7.73;;;;;;;5.75;82.04;94378.44;5017467;28;20715;-79
2024/03/02 00:36:29;;;;;;;9.63;6.83;;;;;;;5.77;82.16;94379.09;5018069;28;20185;-79
2024/03/02 00:38:54;;;;;;;11.33;7.33;;;;;;;5.74;81.10;94371.63;5018804;28;20562;-79
2024/03/02 00:41:23;;;;;;;9.87;7.87;;;;;;;5.68;81.78;94383.34;5015166;28;20215;-79
2024/03/02 00:44:05;;;;;;;10.50;7.90;;;;;;;5.54;82.04;94381.25;5017784;28;20328;-79
2024/03/02 00:46:43;;;;;;;10.70;7.73;;;;;;;5.61;82.09;94375.38;5003302;28;20224;-79
2024/03/02 00:49:13;;;;;;;10.67;8.03;;;;;;;5.69;81.51;94374.66;5017831;28;20209;-79
2024/03/02 00:51:38;;;;;;;9.40;7.33;;;;;;;5.61;81.33;94380.53;4999757;28;20187;-79
2024/03/02 00:54:07;;;;;;;11.87;8.13;;;;;;;5.42;82.29;94385.00;5000865;28;20209;-79
2024/03/02 00:56:32;;;;;;;10.40;8.00;;;;;;;5.48;82.55;94381.81;5010749;28;20195;-79
2024/03/02 00:58:58;;;;;;;9.97;7.97;;;;;;;5.48;82.34;94385.25;5016858;28;20198;-79
2024/03/02 01:01:23;;;;;;;12.07;7.13;;;;;;;5.46;82.53;94383.75;5015932;28;20766;-78
2024/03/02 01:03:49;;;;;;;10.50;7.97;;;;;;;5.44;82.37;94383.91;5004156;28;20186;-79
2024/03/02 01:06:16;;;;;;;12.43;8.40;;;;;;;5.48;82.26;94381.81;5017109;28;20636;-79
2024/03/02 01:08:41;;;;;;;10.23;7.63;;;;;;;5.60;81.19;94383.25;5020464;28;20273;-79
2024/03/02 01:11:07;;;;;;;8.57;7.30;;;;;;;5.48;82.03;94379.25;5011785;28;20546;-80
2024/03/02 01:13:32;;;;;;;10.67;7.33;;;;;;;5.55;81.02;94378.53;5015180;28;20211;-80
2024/03/02 01:15:58;;;;;;;11.57;7.67;;;;;;;5.48;81.81;94374.94;5001509;28;20209;-79
2024/03/02 01:18:24;;;;;;;9.97;7.40;;;;;;;5.44;81.49;94377.94;5018320;28;20194;-79
2024/03/02 01:20:52;;;;;;;9.70;7.63;;;;;;;5.37;81.92;94380.28;5019353;28;20680;-79
2024/03/02 01:23:23;;;;;;;9.43;7.83;;;;;;;5.45;81.90;94377.78;5010124;28;20606;-79
2024/03/02 01:25:49;;;;;;;10.40;9.10;;;;;;;5.23;82.89;94367.91;5018229;28;20211;-80
2024/03/02 01:28:15;;;;;;;10.43;8.20;;;;;;;5.30;82.56;94368.91;5009376;28;20194;-80
2024/03/02 01:30:40;;;;;;;11.47;8.60;;;;;;;5.06;84.45;94375.44;5016318;28;20244;-79
2024/03/02 01:33:06;;;;;;;12.30;8.17;;;;;;;5.10;84.45;94368.22;5001695;28;20710;-78
2024/03/02 01:35:32;;;;;;;10.73;8.93;;;;;;;5.06;85.00;94369.47;5003497;28;20210;-80
2024/03/02 01:37:57;;;;;;;12.13;8.47;;;;;;;5.11;85.11;94367.25;5016794;28;20232;-78
2024/03/02 01:40:26;;;;;;;12.20;8.80;;;;;;;5.19;84.22;94371.69;5016900;28;20233;-79
2024/03/02 01:42:52;;;;;;;11.70;8.23;;;;;;;5.20;84.45;94365.59;5019563;28;20300;-78
2024/03/02 01:45:17;;;;;;;11.73;8.20;;;;;;;5.19;84.44;94362.22;5017697;28;20314;-80
2024/03/02 01:47:42;;;;;;;12.33;8.63;;;;;;;5.24;84.24;94364.38;5022171;28;20355;-80
2024/03/02 01:50:08;;;;;;;10.50;8.00;;;;;;;4.99;85.13;94369.22;5003772;28;20652;-79
2024/03/02 01:52:34;;;;;;;11.30;8.33;;;;;;;5.15;84.41;94370.38;5016747;28;20206;-79
2024/03/02 01:54:59;;;;;;;11.43;7.93;;;;;;;5.22;84.02;94374.81;5006768;28;20231;-80
2024/03/02 01:57:24;;;;;;;10.10;7.80;;;;;;;5.12;85.17;94376.59;5009789;28;20194;-78
2024/03/02 01:59:53;;;;;;;12.67;7.77;;;;;;;5.24;83.83;94370.31;5004464;28;20225;-79
2024/03/02 02:02:18;;;;;;;10.73;8.20;;;;;;;5.19;83.61;94369.94;5012162;28;20548;-78
2024/03/02 02:04:44;;;;;;;10.87;8.17;;;;;;;5.18;83.88;94363.16;5021158;28;20225;-78
2024/03/02 02:07:10;;;;;;;9.90;7.53;;;;;;;5.21;83.89;94368.06;5021984;28;20193;-80
2024/03/02 02:09:35;;;;;;;10.33;8.13;;;;;;;5.25;82.32;94363.41;5021339;28;20198;-80
2024/03/02 02:12:01;;;;;;;11.03;8.03;;;;;;;5.14;83.10;94374.72;5021851;28;20197;-80
2024/03/02 02:14:26;;;;;;;11.70;9.13;;;;;;;5.02;83.62;94370.69;5006141;28;20214;-79
2024/03/02 02:16:52;;;;;;;11.70;8.53;;;;;;;5.07;83.87;94363.38;5023289;28;20294;-78
2024/03/02 02:19:17;;;;;;;10.60;8.87;;;;;;;5.09;83.56;94356.31;5015984;28;20193;-80
2024/03/02 02:21:43;;;;;;;12.47;8.40;;;;;;;5.06;83.66;94344.56;5022855;28;20273;-80
2024/03/02 02:24:08;;;;;;;10.30;7.83;;;;;;;5.05;83.91;94352.41;5020174;28;20205;-80
2024/03/02 02:26:34;;;;;;;12.10;8.40;;;;;;;5.10;83.29;94345.88;5003293;28;20182;-79
2024/03/02 02:28:59;;;;;;;13.33;8.93;;;;;;;5.08;83.47;94344.41;5020095;28;20236;-80
2024/03/02 02:31:24;;;;;;;11.17;7.90;;;;;;;5.03;84.22;94354.31;5019274;28;20640;-80
2024/03/02 02:33:50;;;;;;;11.37;8.50;;;;;;;4.94;84.96;94350.00;5019690;28;20548;-79
2024/03/02 02:36:15;;;;;;;12.77;8.27;;;;;;;4.92;84.97;94349.34;5006318;28;20564;-79
2024/03/02 02:38:44;;;;;;;10.83;8.47;;;;;;;5.10;84.30;94347.63;5008813;28;20282;-80
2024/03/02 02:41:10;;;;;;;11.03;8.87;;;;;;;5.00;84.10;94332.25;5014074;28;20277;-80
2024/03/02 02:43:35;;;;;;;11.93;8.37;;;;;;;5.07;83.99;94340.22;5020068;28;20274;-80
2024/03/02 02:46:00;;;;;;;11.30;8.40;;;;;;;5.09;83.82;94336.53;5019408;28;20211;-79
2024/03/02 02:48:26;;;;;;;10.93;8.23;;;;;;;5.07;83.63;94333.31;5018384;28;20615;-80
2024/03/02 02:50:51;;;;;;;12.90;8.57;;;;;;;5.10;83.51;94335.56;5005399;28;20278;-79
2024/03/02 02:53:16;;;;;;;11.63;8.30;;;;;;;5.14;83.36;94338.69;5012355;28;20210;-78
2024/03/02 02:55:43;;;;;;;10.13;7.37;;;;;;;5.01;83.41;94333.06;5005509;28;20655;-80
2024/03/02 02:58:11;;;;;;;11.43;8.73;;;;;;;5.13;83.63;94333.69;5012597;28;20218;-80
2024/03/02 03:00:36;;;;;;;11.20;8.57;;;;;;;5.09;83.46;94330.59;5007359;28;20290;-80
2024/03/02 03:03:02;;;;;;;11.20;8.47;;;;;;;5.11;83.29;94331.25;5011003;28;20325;-80
2024/03/02 03:05:28;;;;;;;12.43;8.70;;;;;;;5.02;83.61;94329.53;5021946;28;20207;-80
2024/03/02 03:07:53;;;;;;;10.53;8.00;;;;;;;5.03;83.22;94323.44;5020710;28;20192;-80
2024/03/02 03:10:21;;;;;;;10.87;8.13;;;;;;;5.06;82.53;94320.59;5019285;28;20193;-79
2024/03/02 03:12:47;;;;;;;10.47;7.80;;;;;;;4.99;83.80;94328.06;5004607;28;20244;-79
2024/03/02 03:15:13;;;;;;;9.93;7.57;;;;;;;5.05;83.55;94324.94;5022355;28;20201;-80
2024/03/02 03:17:38;;;;;;;10.70;8.10;;;;;;;5.07;83.28;94327.34;5016620;28;20684;-79
2024/03/02 03:20:04;;;;;;;11.93;7.60;;;;;;;5.07;83.47;94332.50;5005722;28;20285;-79
2024/03/02 03:22:35;;;;;;;11.27;7.23;;;;;;;5.04;83.42;94331.03;5021413;28;20193;-80
2024/03/02 03:25:00;;;;;;;10.47;7.53;;;;;;;5.08;82.99;94332.34;5015103;28;20221;-78
2024/03/02 03:27:26;;;;;;;9.67;7.43;;;;;;;5.12;82.66;94332.84;5019178;28;20191;-80
2024/03/02 03:29:51;;;;;;;10.47;8.13;;;;;;;5.13;82.85;94328.53;5015986;28;20192;-79
2024/03/02 03:32:17;;;;;;;9.13;6.90;;;;;;;5.07;83.35;94319.63;5017492;28;20220;-78
2024/03/02 03:34:42;;;;;;;12.90;7.77;;;;;;;5.05;83.21;94326.69;5006050;28;20214;-78
2024/03/02 03:37:08;;;;;;;9.13;7.40;;;;;;;5.02;83.13;94326.97;5001856;28;20305;-78
2024/03/02 03:39:34;;;;;;;8.97;7.03;;;;;;;5.07;83.12;94327.34;5010828;28;20206;-78
2024/03/02 03:41:59;;;;;;;8.77;7.40;;;;;;;5.02;83.48;94324.38;5018165;28;20201;-79
2024/03/02 03:44:24;;;;;;;9.83;6.93;;;;;;;5.00;83.61;94326.28;5018150;28;20214;-79
2024/03/02 03:46:50;;;;;;;10.60;8.10;;;;;;;4.96;83.68;94320.63;5018789;28;20198;-80
2024/03/02 03:49:15;;;;;;;10.90;7.97;;;;;;;4.90;84.05;94325.53;5009104;28;20243;-79
2024/03/02 03:51:40;;;;;;;9.80;7.70;;;;;;;5.08;83.36;94326.38;5017590;28;20254;-79
2024/03/02 03:54:06;;;;;;;10.20;7.33;;;;;;;5.06;83.09;94331.69;4999250;28;20232;-80
2024/03/02 03:56:31;;;;;;;10.87;7.87;;;;;;;5.05;82.98;94324.13;5012707;28;20664;-79
2024/03/02 03:58:57;;;;;;;10.23;8.07;;;;;;;4.99;83.39;94325.50;5006263;28;20214;-80
2024/03/02 04:01:22;;;;;;;11.00;8.17;;;;;;;4.97;83.19;94324.81;5017838;28;20238;-79
2024/03/02 04:03:48;;;;;;;11.30;8.67;;;;;;;4.93;83.82;94323.47;5015746;28;20183;-79
2024/03/02 04:06:14;;;;;;;10.93;8.47;;;;;;;5.04;83.34;94328.44;5019030;28;20738;-79
2024/03/02 04:08:41;;;;;;;10.73;8.20;;;;;;;4.91;84.31;94327.97;5002823;28;20225;-79
2024/03/02 04:11:07;;;;;;;11.80;8.07;;;;;;;5.02;84.00;94319.22;5017822;28;20198;-79
2024/03/02 04:13:32;;;;;;;11.17;7.90;;;;;;;5.00;83.44;94321.16;5002852;28;20191;-79
2024/03/02 04:15:58;;;;;;;10.97;7.93;;;;;;;4.92;84.03;94316.72;5003565;28;20215;-79
2024/03/02 04:18:23;;;;;;;10.80;8.30;;;;;;;5.00;84.28;94321.16;5011736;28;20194;-80
2024/03/02 04:20:49;;;;;;;13.37;9.37;;;;;;;5.07;83.74;94325.59;5016831;28;20210;-80
2024/03/02 04:23:14;;;;;;;10.40;8.67;;;;;;;5.01;84.13;94322.78;5001005;28;20191;-79
2024/03/02 04:25:39;;;;;;;10.70;7.93;;;;;;;4.94;84.59;94319.13;5004867;28;20219;-79
2024/03/02 04:28:05;;;;;;;10.80;8.10;;;;;;;4.92;84.94;94328.78;4998423;28;20657;-79
2024/03/02 04:30:30;;;;;;;10.80;7.90;;;;;;;5.06;84.22;94328.31;5003192;28;20194;-80
2024/03/02 04:32:55;;;;;;;12.93;8.90;;;;;;;5.07;84.25;94327.34;5017841;28;20268;-80
2024/03/02 04:35:21;;;;;;;12.00;8.97;;;;;;;5.02;84.40;94329.53;5016235;28;20290;-79
2024/03/02 04:37:46;;;;;;;14.73;8.93;;;;;;;5.07;84.12;94330.72;5019722;28;20190;-79
2024/03/02 04:40:12;;;;;;;12.73;8.50;;;;;;;4.98;84.81;94325.63;5004949;28;20226;-79
2024/03/02 04:42:37;;;;;;;12.80;9.77;;;;;;;5.08;83.77;94326.38;5015373;28;20194;-80
2024/03/02 04:45:03;;;;;;;11.93;8.63;;;;;;;5.10;83.75;94324.47;5002515;28;20668;-79
2024/03/02 04:47:28;;;;;;;13.37;9.80;;;;;;;5.10;83.43;94322.72;5018331;28;20233;-80
2024/03/02 04:49:53;;;;;;;12.87;9.13;;;;;;;5.02;83.75;94322.63;5019085;28;20248;-79
2024/03/02 04:52:19;;;;;;;12.10;9.20;;;;;;;5.02;83.77;94329.53;5008936;28;20194;-78
2024/03/02 04:57:28;;;;;;;13.07;9.10;;;;;;;5.11;83.65;94328.66;5018925;28;20217;-80
2024/03/02 04:59:53;;;;;;;13.73;9.17;;;;;;;5.08;83.71;94334.09;5020522;28;20849;-80
2024/03/02 05:02:19;;;;;;;11.93;8.77;;;;;;;5.00;83.92;94331.44;5013844;28;20206;-79
2024/03/02 05:04:44;;;;;;;12.50;8.83;;;;;;;5.13;82.77;94334.50;5018806;28;20231;-80
2024/03/02 05:07:10;;;;;;;16.27;9.17;;;;;;;5.05;83.13;94335.22;5017199;28;20283;-80
2024/03/02 05:09:35;;;;;;;12.83;8.77;;;;;;;4.92;83.45;94339.06;5005110;28;20690;-79
2024/03/02 05:14:45;;;;;;;12.83;8.77;;;;;;;5.02;82.94;94338.06;5018091;28;20651;-80
2024/03/02 05:17:11;;;;;;;13.53;8.87;;;;;;;4.91;83.51;94350.31;5011553;28;20190;-79
2024/03/02 05:19:36;;;;;;;13.77;9.40;;;;;;;4.99;82.95;94347.84;5019632;28;20241;-80
2024/03/02 05:22:02;;;;;;;11.27;8.60;;;;;;;5.06;82.85;94348.88;5018211;28;20190;-79
2024/03/02 05:24:28;;;;;;;11.87;9.60;;;;;;;5.07;82.68;94347.94;5004357;28;20554;-80
2024/03/02 05:26:54;;;;;;;13.17;8.80;;;;;;;5.07;82.84;94355.66;5016432;28;20201;-80
2024/03/02 05:29:19;;;;;;;14.33;9.37;;;;;;;5.03;82.87;94352.53;5021236;28;20198;-79
2024/03/02 05:31:44;;;;;;;12.47;8.73;;;;;;;4.99;82.66;94350.41;5017242;28;20602;-80
2024/03/02 05:34:10;;;;;;;12.43;8.47;;;;;;;4.91;83.10;94351.13;5002556;28;20210;-80
2024/03/02 05:36:35;;;;;;;12.37;8.53;;;;;;;4.94;82.82;94348.25;5003581;28;20590;-79
2024/03/02 05:39:01;;;;;;;11.47;7.67;;;;;;;4.89;82.52;94342.75;5008172;28;20201;-80
2024/03/02 05:41:26;;;;;;;10.97;7.00;;;;;;;5.01;82.10;94353.66;5022699;28;20207;-80
2024/03/02 05:43:52;;;;;;;10.70;7.23;;;;;;;4.87;82.24;94351.56;5023479;28;20548;-78
2024/03/02 05:46:17;;;;;;;10.10;7.13;;;;;;;5.00;81.65;94352.84;5021546;28;20615;-79
2024/03/02 05:48:42;;;;;;;9.33;7.40;;;;;;;4.98;81.37;94348.78;5017723;28;20187;-80
2024/03/02 05:51:08;;;;;;;10.40;6.97;;;;;;;4.93;81.65;94349.19;5023468;28;20185;-79
2024/03/02 05:53:33;;;;;;;10.17;7.10;;;;;;;5.02;80.87;94345.78;5003031;28;20210;-79
2024/03/02 05:55:59;;;;;;;9.10;6.97;;;;;;;4.90;81.84;94346.13;5012607;28;20202;-79
2024/03/02 06:01:12;;;;;;;9.90;7.80;;;;;;;5.08;80.50;94359.84;5025397;28;20838;-78
2024/03/02 06:03:38;;;;;;;10.17;7.87;;;;;;;4.93;81.12;94350.97;5021749;28;20274;-78
2024/03/02 06:06:03;;;;;;;12.20;7.20;;;;;;;5.03;80.54;94365.41;5017101;28;20214;-80
2024/03/02 06:08:29;;;;;;;11.17;7.17;;;;;;;4.96;81.14;94358.41;5021945;28;20194;-80
2024/03/02 06:10:56;;;;;;;8.77;7.03;;;;;;;5.06;80.97;94356.59;5009080;28;20190;-79
2024/03/02 06:13:21;;;;;;;10.17;7.17;;;;;;;5.01;80.57;94354.44;5019891;28;20184;-79
2024/03/02 06:15:46;;;;;;;11.80;7.17;;;;;;;5.08;79.79;94354.69;5019396;28;20717;-80
2024/03/02 06:18:12;;;;;;;11.23;7.10;;;;;;;5.03;79.52;94354.31;5025438;28;20555;-80
2024/03/02 06:20:37;;;;;;;10.63;7.23;;;;;;;5.05;79.83;94355.81;5023304;28;20557;-80
2024/03/02 06:23:03;;;;;;;11.27;7.43;;;;;;;5.00;79.32;94354.59;5023169;28;20293;-80
2024/03/02 06:25:29;;;;;;;11.10;7.50;;;;;;;5.06;79.51;94361.75;5022639;28;20213;-80
2024/03/02 06:27:54;;;;;;;11.30;7.53;;;;;;;5.02;79.11;94361.22;5020317;28;20193;-79
2024/03/02 06:30:19;;;;;;;13.37;7.07;;;;;;;5.04;79.08;94367.03;5020371;28;20302;-80
2024/03/02 06:32:45;;;;;;;10.80;6.77;;;;;;;5.14;79.08;94361.03;5021284;28;20193;-80
2024/03/02 06:35:10;;;;;;;9.20;6.20;;;;;;;5.15;79.19;94363.47;5009218;28;20203;-80
2024/03/02 06:37:38;;;;;;;10.20;6.77;;;;;;;5.06;78.42;94361.75;5017432;28;20202;-79
2024/03/02 06:40:03;;;;;;;7.33;5.80;;;;;;;5.11;78.52;94359.53;5015495;28;20215;-80
2024/03/02 06:42:33;;;;;;;8.80;6.33;;;;;;;5.25;77.72;94358.25;5018935;28;20194;-80
2024/03/02 06:44:58;;;;;;;7.90;5.97;;;;;;;5.23;77.60;94355.84;5003949;28;20226;-79
2024/03/02 06:47:24;;;;;;;9.53;6.47;;;;;;;5.20;77.51;94363.03;5018580;28;20198;-79
2024/03/02 06:49:49;;;;;;;7.13;5.60;;;;;;;5.25;76.88;94366.78;5021257;28;20191;-80
2024/03/02 06:52:14;;;;;;;7.77;5.77;;;;;;;5.20;76.91;94363.84;5020298;28;21347;-79
2024/03/02 06:54:39;;;;;;;7.03;5.83;;;;;;;5.30;76.92;94371.50;5025334;28;20207;-80
2024/03/02 06:57:05;;;;;;;7.97;5.83;;;;;;;5.34;76.52;94370.28;5006614;28;20191;-79
2024/03/02 06:59:30;;;;;;;7.57;5.70;;;;;;;5.42;76.23;94372.13;5008876;28;20282;-79
2024/03/02 07:01:56;;;;;;;7.80;6.33;;;;;;;5.33;76.50;94376.38;5008673;28;20664;-80
2024/03/02 07:04:22;;;;;;;6.60;5.50;;;;;;;5.37;76.13;94380.28;5006723;28;20210;-80
2024/03/02 07:06:47;;;;;;;8.17;6.23;;;;;;;5.34;76.24;94375.41;5023256;28;20664;-79
2024/03/02 07:09:12;;;;;;;7.10;5.33;;;;;;;5.61;75.00;94379.72;5013997;28;20561;-80
2024/03/02 07:11:38;;;;;;;8.00;5.67;;;;;;;5.59;75.15;94384.22;5013730;28;20186;-80
2024/03/02 07:14:03;;;;;;;6.23;5.30;;;;;;;5.44;75.63;94385.66;5024150;28;20652;-80
2024/03/02 07:16:29;;;;;;;6.60;5.30;;;;;;;5.39;75.99;94384.34;5020226;28;20557;-82
2024/03/02 07:18:56;;;;;;;9.10;6.20;;;;;;;5.58;75.00;94382.59;5020651;28;20596;-80
2024/03/02 07:21:22;;;;;;;7.93;5.97;;;;;;;5.51;75.77;94392.66;5013503;28;20210;-80
2024/03/02 07:23:48;;;;;;;7.30;5.90;;;;;;;5.61;75.30;94387.44;5018232;28;20181;-80
2024/03/02 07:26:14;;;;;;;7.93;6.20;;;;;;;5.56;75.13;94390.44;5025990;28;20197;-80
2024/03/02 07:28:41;;;;;;;8.13;6.30;;;;;;;5.47;74.86;94386.16;5010142;28;20717;-80
2024/03/02 07:31:07;;;;;;;8.07;6.00;;;;;;;5.51;75.60;94391.84;5023229;28;20193;-80
2024/03/02 07:33:32;;;;;;;7.37;5.27;;;;;;;5.56;75.14;94387.06;5008553;28;20245;-80
2024/03/02 07:36:00;;;;;;;7.87;6.60;;;;;;;5.52;75.38;94389.13;5004821;28;20207;-79
2024/03/02 07:38:26;;;;;;;8.33;5.90;;;;;;;5.59;75.37;94390.19;5018583;28;20191;-80
2024/03/02 07:40:52;;;;;;;7.83;5.93;;;;;;;5.50;75.64;94390.25;5020317;28;20256;-78
2024/03/02 07:43:19;;;;;;;10.10;6.43;;;;;;;5.83;75.07;94387.03;5023029;28;20186;-79
2024/03/02 07:45:44;;;;;;;9.03;6.63;;;;;;;5.86;74.50;94393.66;5021470;28;20319;-80
2024/03/02 07:48:10;;;;;;;8.47;6.47;;;;;;;5.89;74.86;94383.84;5007810;28;20226;-80
2024/03/02 07:50:35;;;;;;;8.47;6.03;;;;;;;5.99;74.64;94390.72;5025192;28;20675;-83
2024/03/02 07:53:01;;;;;;;7.87;6.13;;;;;;;5.96;74.73;94387.50;5007289;28;20202;-83
2024/03/02 07:55:27;;;;;;;9.33;6.47;;;;;;;6.14;74.22;94390.06;5008288;28;20214;-78
2024/03/02 07:57:52;;;;;;;7.93;5.90;;;;;;;6.10;73.81;94388.75;5011001;28;20215;-79
2024/03/02 08:00:18;;;;;;;7.37;5.80;;;;;;;6.25;73.43;94389.00;5018093;28;20206;-81
2024/03/02 08:02:43;;;;;;;9.73;6.73;;;;;;;6.41;72.93;94386.56;5009654;28;20209;-79
2024/03/02 08:05:08;;;;;;;7.63;6.23;;;;;;;6.56;72.50;94392.00;5017415;28;20302;-79
2024/03/02 08:07:34;;;;;;;7.60;5.43;;;;;;;6.58;72.32;94394.41;5017608;28;20183;-78
2024/03/02 08:09:59;;;;;;;8.60;6.17;;;;;;;6.60;72.10;94400.22;5017820;28;20640;-80
2024/03/02 08:12:25;;;;;;;7.20;5.07;;;;;;;6.80;71.59;94399.06;5008245;28;20194;-82
2024/03/02 08:14:50;;;;;;;5.83;4.93;;;;;;;6.94;71.14;94401.09;5012011;28;20206;-82
2024/03/02 08:17:16;;;;;;;8.00;6.30;;;;;;;7.08;70.55;94395.34;5010819;28;20195;-83
2024/03/02 08:19:41;;;;;;;6.17;5.07;;;;;;;7.13;70.63;94384.56;5018881;28;20617;-81
2024/03/02 08:22:07;;;;;;;7.13;5.10;;;;;;;7.34;69.56;94384.97;5018963;28;20734;-81
2024/03/02 08:24:32;;;;;;;8.03;5.23;;;;;;;7.36;69.27;94388.22;5017262;28;20214;-80
2024/03/02 08:26:59;;;;;;;6.87;5.07;;;;;;;7.44;68.89;94391.78;5021923;28;20183;-81
2024/03/02 08:29:25;;;;;;;5.67;4.30;;;;;;;7.54;68.51;94392.47;4998844;28;20684;-81
2024/03/02 08:31:50;;;;;;;6.10;4.60;;;;;;;7.69;67.90;94379.75;5021423;28;20198;-81
2024/03/02 08:34:15;;;;;;;5.87;4.63;;;;;;;7.81;67.48;94381.88;5017640;28;20218;-80
2024/03/02 08:36:41;;;;;;;4.47;3.67;;;;;;;7.98;66.22;94382.69;5020203;28;20190;-79
2024/03/02 08:39:15;;;;;;;6.00;3.93;;;;;;;8.08;66.40;94383.34;5018138;28;21027;-80
2024/03/02 08:41:41;;;;;;;5.10;4.13;;;;;;;8.31;65.22;94377.56;5007574;28;20222;-80
2024/03/02 08:44:06;;;;;;;4.70;3.50;;;;;;;8.38;65.04;94379.34;5001282;28;20206;-81
2024/03/02 08:46:31;;;;;;;5.93;3.57;;;;;;;8.50;64.53;94378.06;5020079;28;20198;-81
2024/03/02 08:48:57;;;;;;;4.30;3.37;;;;;;;8.58;64.86;94384.19;5017625;28;20187;-80
2024/03/02 08:51:22;;;;;;;6.33;3.57;;;;;;;8.74;64.14;94384.94;5006304;28;20273;-81
2024/03/02 08:53:47;;;;;;;5.23;3.60;;;;;;;8.95;64.05;94386.22;5015910;28;20282;-80
2024/03/02 08:56:13;;;;;;;3.87;3.30;;;;;;;8.94;64.23;94387.19;5019871;28;20656;-81
2024/03/02 08:58:38;;;;;;;4.90;3.77;;;;;;;9.05;64.19;94384.25;5020272;28;20194;-80
2024/03/02 09:01:04;;;;;;;5.57;3.97;;;;;;;9.11;63.33;94388.78;5013813;28;20642;-80
2024/03/02 09:03:29;;;;;;;5.00;3.73;;;;;;;9.17;63.45;94388.09;5001158;28;20183;-81
2024/03/02 09:05:55;;;;;;;8.27;4.03;;;;;;;9.36;62.79;94381.69;5022698;28;20230;-80
2024/03/02 09:08:20;;;;;;;7.43;4.17;;;;;;;9.32;62.54;94380.44;5021419;28;20179;-81
2024/03/02 09:10:45;;;;;;;4.87;3.47;;;;;;;9.32;62.63;94380.44;5006723;28;20201;-80
2024/03/02 09:13:11;;;;;;;4.57;4.00;;;;;;;9.58;62.09;94374.97;5003423;28;20197;-80
2024/03/02 09:15:37;;;;;;;6.40;4.47;;;;;;;9.57;62.31;94376.75;5009143;28;20211;-80
2024/03/02 09:18:03;;;;;;;5.43;4.53;;;;;;;9.54;62.03;94376.28;5021863;28;20637;-80
2024/03/02 09:20:29;;;;;;;4.33;3.60;;;;;;;9.81;61.95;94372.44;5017814;28;20261;-81
2024/03/02 09:22:54;;;;;;;4.90;3.90;;;;;;;9.80;60.98;94381.97;5020662;28;20656;-81
2024/03/02 09:25:20;;;;;;;4.20;3.73;;;;;;;9.70;60.57;94376.19;5019063;28;20206;-80
2024/03/02 09:27:45;;;;;;;5.27;3.90;;;;;;;9.90;60.16;94372.22;5018827;28;20186;-81
2024/03/02 09:30:11;;;;;;;4.73;4.17;;;;;;;10.06;59.89;94375.66;5018409;28;20659;-81
2024/03/02 09:32:37;;;;;;;3.87;3.53;;;;;;;10.06;60.30;94373.06;5021807;28;20803;-80
2024/03/02 09:35:03;;;;;;;5.23;4.20;;;;;;;10.09;59.25;94375.31;5018761;28;20268;-80
2024/03/02 09:37:28;;;;;;;5.20;3.87;;;;;;;10.22;59.64;94375.56;5003914;28;20585;-80
2024/03/02 09:39:54;;;;;;;5.87;3.77;;;;;;;10.37;59.92;94373.03;5015982;28;20609;-81
2024/03/02 09:42:19;;;;;;;5.47;3.60;;;;;;;10.20;59.02;94372.31;5017965;28;20182;-81
2024/03/02 09:44:45;;;;;;;4.43;3.67;;;;;;;10.26;58.50;94374.25;5001867;28;20215;-80
2024/03/02 09:47:10;;;;;;;5.33;3.80;;;;;;;10.37;58.38;94378.22;5007345;28;20190;-81
2024/03/02 09:49:36;;;;;;;4.63;4.03;;;;;;;10.41;59.49;94375.09;5017035;28;20267;-79
2024/03/02 09:52:03;;;;;;;3.90;3.40;;;;;;;10.55;58.69;94381.31;5020912;28;20272;-79
2024/03/02 09:54:28;;;;;;;4.77;3.50;;;;;;;10.81;57.57;94364.53;5021523;28;20695;-80
2024/03/02 09:56:54;;;;;;;3.83;3.43;;;;;;;10.76;57.21;94363.25;5000985;28;20285;-80
2024/03/02 09:59:20;;;;;;;4.57;4.07;;;;;;;10.81;56.84;94367.13;5018763;28;20183;-79
2024/03/02 10:02:02;;;;;;;4.87;4.20;;;;;;;10.80;56.74;94363.72;5004877;28;20338;-79
2024/03/02 10:04:29;;;;;;;4.20;3.47;;;;;;;10.87;57.46;94362.03;5016901;28;20199;-79
2024/03/02 10:07:14;;;;;;;3.53;3.13;;;;;;;10.95;56.94;94364.50;5013756;28;20195;-80
2024/03/02 10:09:41;;;;;;;5.27;3.37;;;;;;;10.93;55.78;94369.09;5017835;28;20197;-79
2024/03/02 10:12:08;;;;;;;3.30;3.00;;;;;;;11.15;56.24;94359.63;5017100;28;20175;-79
2024/03/02 10:14:33;;;;;;;3.57;2.53;;;;;;;11.19;55.88;94363.44;5001473;28;20207;-79
2024/03/02 10:17:17;;;;;;;3.27;2.53;;;;;;;11.39;54.90;94363.69;5019621;28;20195;-79
2024/03/02 10:19:42;;;;;;;3.00;2.60;;;;;;;11.37;54.58;94360.47;4999238;28;20194;-81
2024/03/02 10:22:09;;;;;;;2.93;2.60;;;;;;;11.56;55.49;94365.09;5010862;28;20199;-79
2024/03/02 10:24:40;;;;;;;3.30;2.67;;;;;;;11.60;54.16;94355.16;5008222;28;20285;-80
2024/03/02 10:27:17;;;;;;;3.13;2.87;;;;;;;11.80;53.67;94360.63;5022194;28;20210;-81
2024/03/02 10:29:46;;;;;;;3.63;2.90;;;;;;;11.80;54.28;94358.00;5001434;28;20202;-80
2024/03/02 10:32:11;;;;;;;2.50;2.30;;;;;;;11.52;53.17;94353.47;5023992;28;20236;-80
2024/03/02 10:34:40;;;;;;;3.23;2.60;;;;;;;11.42;53.12;94357.34;5009063;28;20215;-81
2024/03/02 10:37:07;;;;;;;2.83;2.10;;;;;;;11.55;52.72;94357.50;5020751;28;20183;-80
2024/03/02 10:39:35;;;;;;;2.40;2.20;;;;;;;11.86;51.83;94354.69;5008579;28;20668;-80
2024/03/02 10:42:03;;;;;;;1.70;1.40;;;;;;;11.78;51.48;94357.38;5006838;28;20481;-80
2024/03/02 10:44:28;;;;;;;1.83;1.40;;;;;;;11.87;51.17;94357.09;5023194;28;20207;-80
2024/03/02 10:46:55;;;;;;;2.10;1.50;;;;;;;11.79;50.39;94354.56;5020870;28;20199;-81
2024/03/02 10:49:22;;;;;;;2.30;1.20;;;;;;;11.86;50.62;94354.69;5004658;28;20189;-80
2024/03/02 10:51:48;;;;;;;1.90;1.30;;;;;;;11.82;50.31;94356.03;5022045;28;20199;-80
2024/03/02 10:54:13;;;;;;;1.57;1.37;;;;;;;11.85;49.85;94348.69;5005675;28;20215;-80
2024/03/02 10:56:40;;;;;;;1.80;1.27;;;;;;;12.06;50.34;94345.28;5009278;28;20179;-79
2024/03/02 10:59:30;;;;;;;1.10;0.97;;;;;;;12.19;49.46;94339.38;5020616;28;20182;-80
2024/03/02 11:01:58;;;;;;;1.00;0.90;;;;;;;12.14;49.05;94332.13;5022590;28;20187;-81
2024/03/02 11:04:24;;;;;;;1.20;1.10;;;;;;;12.50;48.95;94327.84;4999917;28;20222;-80
2024/03/02 11:06:51;;;;;;;1.23;0.97;;;;;;;12.28;50.00;94338.28;5013348;28;20191;-80
2024/03/02 11:09:21;;;;;;;1.30;1.10;;;;;;;12.50;48.62;94331.25;5020539;28;20601;-80
2024/03/02 11:12:10;;;;;;;1.00;0.90;;;;;;;12.32;49.34;94329.09;5021380;28;20655;-79
2024/03/02 11:14:37;;;;;;;1.00;0.90;;;;;;;12.69;49.60;94325.38;5023219;28;20230;-80
2024/03/02 11:17:04;;;;;;;1.20;1.00;;;;;;;12.34;49.24;94323.69;5016588;28;20189;-80
2024/03/02 11:19:29;;;;;;;1.47;1.10;;;;;;;12.63;48.79;94313.13;5013577;28;20195;-80
2024/03/02 11:21:55;;;;;;;2.60;1.00;;;;;;;12.83;49.56;94315.03;5011006;28;20269;-81
2024/03/02 11:24:21;;;;;;;1.37;1.20;;;;;;;12.67;49.21;94318.75;5012712;28;20252;-81
2024/03/02 11:26:46;;;;;;;1.87;1.50;;;;;;;12.85;49.14;94307.84;5020776;28;20187;-80
2024/03/02 11:29:40;;;;;;;1.50;1.10;;;;;;;12.92;48.11;94300.88;5000962;28;20506;-80
2024/03/02 11:32:06;;;;;;;1.03;0.93;;;;;;;12.90;48.52;94297.66;5023796;28;20193;-80
2024/03/02 11:34:36;;;;;;;1.07;1.00;;;;;;;13.01;48.64;94300.50;5004570;28;20207;-80
2024/03/02 11:37:02;;;;;;;1.17;0.93;;;;;;;13.22;47.71;94297.03;5005921;28;20195;-80
2024/03/02 11:39:29;;;;;;;1.30;1.20;;;;;;;12.96;47.66;94292.47;5004868;28;20187;-79
2024/03/02 11:41:56;;;;;;;1.53;1.30;;;;;;;13.06;47.86;94297.31;5005450;28;20610;-79